Time;durP1;ratioP1;P1;durP2;ratioP2;P2;SDS_P1;SDS_P2;PMS_P1;PMS_P2;Temp;Humidity;BMP_temperature;BMP_pressure;BME280_temperature;BME280_humidity;BME280_pressure;Samples;Min_cycle;Max_cycle;Signal;HPM_P1;HPM_P2
2022/03/10 00:01:22;;;;;;;;;46.00;34.25;;;;;9.65;54.65;101120.50;5097909;27;46118;-64
2022/03/10 00:03:48;;;;;;;;;46.75;36.00;;;;;9.65;54.53;101124.91;5096205;27;45495;-65
2022/03/10 00:06:13;;;;;;;;;44.25;36.50;;;;;9.63;54.77;101124.09;5096423;27;45508;-63
2022/03/10 00:08:39;;;;;;;;;43.50;35.75;;;;;9.59;54.30;101123.31;5096928;27;45485;-66
2022/03/10 00:11:05;;;;;;;;;44.25;35.25;;;;;9.60;54.90;101122.41;5096133;27;47726;-64
2022/03/10 00:13:31;;;;;;;;;45.50;36.00;;;;;9.58;54.46;101126.84;5097903;27;45207;-67
2022/03/10 00:15:59;;;;;;;;;39.25;34.00;;;;;9.56;54.41;101115.50;5097088;27;45365;-66
2022/03/10 00:18:25;;;;;;;;;46.00;35.00;;;;;9.54;54.39;101121.69;5096902;27;45747;-65
2022/03/10 00:20:50;;;;;;;;;49.25;38.25;;;;;9.52;54.66;101127.00;5096912;27;47264;-65
2022/03/10 00:23:15;;;;;;;;;42.25;35.00;;;;;9.48;54.33;101117.50;5096881;27;45374;-65
2022/03/10 00:25:41;;;;;;;;;48.75;38.25;;;;;9.45;54.57;101110.53;5097345;27;45308;-64
2022/03/10 00:28:06;;;;;;;;;50.50;41.25;;;;;9.43;54.38;101112.34;5096726;27;45597;-65
2022/03/10 00:30:31;;;;;;;;;45.25;35.75;;;;;9.41;54.75;101116.78;5097182;27;45422;-64
2022/03/10 00:32:57;;;;;;;;;47.50;36.75;;;;;9.40;54.40;101127.34;5095549;27;45515;-63
2022/03/10 00:35:24;;;;;;;;;41.00;34.75;;;;;9.38;54.68;101134.41;5094137;27;45406;-63
2022/03/10 00:37:50;;;;;;;;;43.50;36.75;;;;;9.35;54.72;101124.81;5096183;27;45381;-63
2022/03/10 00:40:16;;;;;;;;;45.50;35.75;;;;;9.33;54.42;101131.88;5096516;27;45538;-65
2022/03/10 00:42:43;;;;;;;;;52.00;41.50;;;;;9.32;54.75;101132.78;5097419;27;45433;-67
2022/03/10 00:45:10;;;;;;;;;39.25;34.00;;;;;9.29;54.79;101132.84;5097141;27;45234;-63
2022/03/10 00:47:35;;;;;;;;;61.50;48.25;;;;;9.28;54.55;101132.00;5096727;27;45744;-63
2022/03/10 00:50:02;;;;;;;;;50.75;37.00;;;;;9.27;54.61;101129.41;5096498;27;45824;-66
2022/03/10 00:52:27;;;;;;;;;44.50;33.75;;;;;9.24;54.75;101134.75;5096408;27;45462;-63
2022/03/10 00:54:53;;;;;;;;;39.00;33.50;;;;;9.22;54.57;101126.91;5112115;27;45358;-65
2022/03/10 00:57:19;;;;;;;;;45.25;34.75;;;;;9.21;54.76;101136.53;5096053;27;45789;-66
2022/03/10 00:59:44;;;;;;;;;43.25;33.75;;;;;9.19;54.70;101132.25;5096599;27;45466;-64
2022/03/10 01:02:10;;;;;;;;;40.50;35.50;;;;;9.16;54.72;101135.81;5096572;27;45447;-65
2022/03/10 01:04:35;;;;;;;;;42.50;33.50;;;;;9.16;54.73;101132.34;5096775;27;45164;-66
2022/03/10 01:07:01;;;;;;;;;37.50;33.25;;;;;9.12;54.83;101125.44;5096789;27;45457;-64
2022/03/10 01:09:26;;;;;;;;;38.25;32.00;;;;;9.10;54.58;101133.34;5096472;27;46159;-66
2022/03/10 01:11:52;;;;;;;;;45.75;36.75;;;;;9.09;54.94;101138.63;5095200;27;45349;-66
2022/03/10 01:14:17;;;;;;;;;40.75;34.00;;;;;9.06;54.70;101135.19;5112909;27;45243;-62
2022/03/10 01:16:43;;;;;;;;;41.00;32.00;;;;;9.06;54.65;101134.31;5097111;27;45318;-67
2022/03/10 01:19:08;;;;;;;;;40.75;32.50;;;;;9.03;54.65;101142.25;5096387;27;45439;-67
2022/03/10 01:21:34;;;;;;;;;45.25;36.50;;;;;9.02;54.44;101144.03;5096597;27;45226;-65
2022/03/10 01:24:00;;;;;;;;;45.75;34.00;;;;;9.00;54.75;101143.19;5097047;27;45475;-66
2022/03/10 01:26:25;;;;;;;;;36.50;31.25;;;;;8.98;54.76;101137.09;5096531;27;45320;-64
2022/03/10 01:28:51;;;;;;;;;40.25;32.50;;;;;8.98;55.04;101141.50;5096312;27;46275;-64
2022/03/10 01:31:16;;;;;;;;;42.25;33.75;;;;;8.95;54.93;101128.47;5092001;27;45418;-66
2022/03/10 01:33:42;;;;;;;;;45.25;36.25;;;;;8.91;54.73;101122.41;5083010;27;45354;-63
2022/03/10 01:36:08;;;;;;;;;40.00;33.00;;;;;8.91;54.42;101125.03;5096792;27;45523;-67
2022/03/10 01:38:39;;;;;;;;;40.75;35.00;;;;;8.88;54.70;101127.75;5095944;27;45462;-67
2022/03/10 01:41:05;;;;;;;;;46.75;35.50;;;;;8.85;54.55;101120.81;5095538;27;45264;-64
2022/03/10 01:43:30;;;;;;;;;45.00;36.00;;;;;8.85;54.53;101127.81;5088012;27;45519;-65
2022/03/10 01:45:57;;;;;;;;;44.00;33.25;;;;;8.83;54.79;101132.25;5095926;27;45523;-64
2022/03/10 01:48:23;;;;;;;;;41.00;33.25;;;;;8.81;54.58;101120.91;5094365;27;45727;-64
2022/03/10 01:50:48;;;;;;;;;32.25;29.25;;;;;8.79;54.98;101122.72;5095988;27;45420;-62
2022/03/10 01:53:14;;;;;;;;;41.00;34.00;;;;;8.76;54.77;101118.44;5096120;27;45580;-63
2022/03/10 01:55:39;;;;;;;;;47.25;32.50;;;;;8.75;54.79;101122.78;5096262;27;45563;-63
2022/03/10 01:58:05;;;;;;;;;38.75;33.00;;;;;8.71;55.03;101115.91;5095156;27;46254;-63
2022/03/10 02:00:31;;;;;;;;;41.25;34.75;;;;;8.68;54.71;101123.84;5095686;27;45537;-62
2022/03/10 02:02:56;;;;;;;;;45.25;35.25;;;;;8.69;54.56;101117.69;5095823;27;45413;-65
2022/03/10 02:05:22;;;;;;;;;47.50;35.00;;;;;8.68;54.61;101118.59;5095835;27;45508;-65
2022/03/10 02:10:34;;;;;;;;;42.00;34.25;;;;;8.62;54.64;101117.00;5093761;27;45480;-64
2022/03/10 02:12:59;;;;;;;;;43.75;35.75;;;;;8.61;55.25;101115.28;5096109;27;45232;-66
2022/03/10 02:18:11;;;;;;;;;44.25;35.00;;;;;8.59;54.68;101113.56;5095972;27;45495;-67
2022/03/10 02:20:38;;;;;;;;;39.50;33.00;;;;;8.57;54.82;101116.25;5095073;27;45317;-67
2022/03/10 02:23:05;;;;;;;;;35.00;31.75;;;;;8.55;55.19;101119.78;5094316;27;45498;-65
2022/03/10 02:25:32;;;;;;;;;37.25;32.25;;;;;8.52;54.68;101112.88;5095235;27;45406;-66
2022/03/10 02:27:57;;;;;;;;;43.75;35.00;;;;;8.49;55.00;101118.19;5095635;27;46153;-65
2022/03/10 02:30:28;;;;;;;;;43.00;34.50;;;;;8.49;54.46;101120.81;5111261;27;45413;-68
2022/03/10 02:32:53;;;;;;;;;38.75;31.50;;;;;8.47;54.85;101112.03;5095810;27;45469;-65
2022/03/10 02:35:19;;;;;;;;;36.25;31.00;;;;;8.42;54.92;101111.28;5095930;27;45356;-67
2022/03/10 02:37:44;;;;;;;;;36.50;33.00;;;;;8.42;54.80;101106.03;5095626;27;46286;-66
2022/03/10 02:40:11;;;;;;;;;39.00;34.25;;;;;8.41;54.78;101110.44;5095691;27;45552;-64
2022/03/10 02:42:36;;;;;;;;;63.25;48.25;;;;;8.40;54.37;101111.34;5095075;27;45194;-63
2022/03/10 02:45:03;;;;;;;;;38.50;30.50;;;;;8.40;54.38;101123.56;5095384;27;45302;-64
2022/03/10 02:47:29;;;;;;;;;41.75;31.75;;;;;8.37;54.71;101127.13;5093758;27;46724;-65
2022/03/10 02:49:54;;;;;;;;;38.50;32.25;;;;;8.38;55.01;101125.38;5093899;27;45260;-64
2022/03/10 02:52:20;;;;;;;;;38.25;33.50;;;;;8.33;55.21;101123.72;5095292;27;45841;-64
2022/03/10 02:54:45;;;;;;;;;41.25;31.00;;;;;8.33;55.15;101126.31;5094560;27;45371;-66
2022/03/10 02:57:12;;;;;;;;;42.50;33.00;;;;;8.32;55.19;101123.75;5093295;27;45926;-65
2022/03/10 02:59:37;;;;;;;;;41.75;33.75;;;;;8.30;55.30;101131.63;5095444;27;45456;-66
2022/03/10 03:02:04;;;;;;;;;35.25;32.00;;;;;8.30;55.22;101130.78;5095071;27;45261;-63
2022/03/10 03:04:29;;;;;;;;;47.75;33.00;;;;;8.28;54.72;101122.94;5095745;27;45441;-67
2022/03/10 03:06:55;;;;;;;;;41.75;33.50;;;;;8.26;55.14;101129.13;5094371;27;46027;-65
2022/03/10 03:09:20;;;;;;;;;41.25;31.75;;;;;8.24;54.76;101128.31;5095740;27;45290;-65
2022/03/10 03:11:46;;;;;;;;;39.00;32.75;;;;;8.22;55.08;101133.56;5094925;27;45346;-66
2022/03/10 03:14:11;;;;;;;;;44.25;34.00;;;;;8.21;55.11;101129.22;5095314;27;45618;-65
2022/03/10 03:16:37;;;;;;;;;43.50;35.75;;;;;8.17;55.19;101125.81;5094641;27;45850;-66
2022/03/10 03:19:03;;;;;;;;;33.50;29.75;;;;;8.14;55.24;101125.00;5094569;27;46013;-63
2022/03/10 03:21:28;;;;;;;;;38.75;30.75;;;;;8.16;55.67;101134.56;5096664;27;45429;-64
2022/03/10 03:23:54;;;;;;;;;37.50;32.50;;;;;8.14;55.82;101125.88;5098955;27;45505;-62
2022/03/10 03:26:19;;;;;;;;;35.50;32.50;;;;;8.13;55.40;101134.66;5096788;27;46000;-65
2022/03/10 03:28:44;;;;;;;;;44.25;32.75;;;;;8.13;55.73;101133.75;5098622;27;45296;-63
2022/03/10 03:31:11;;;;;;;;;38.50;32.75;;;;;8.12;55.38;101135.53;5098674;27;45408;-66
2022/03/10 03:33:37;;;;;;;;;38.25;32.00;;;;;8.12;55.44;101143.41;5097265;27;45615;-65
2022/03/10 03:36:03;;;;;;;;;38.75;32.25;;;;;8.08;55.36;101143.47;5098169;27;45307;-66
2022/03/10 03:38:28;;;;;;;;;31.50;24.50;;;;;8.09;55.45;101142.59;5113984;27;45457;-65
2022/03/10 03:40:54;;;;;;;;;39.25;32.50;;;;;8.07;55.24;101139.13;5098648;27;45391;-64
2022/03/10 03:43:19;;;;;;;;;39.25;32.50;;;;;8.04;55.93;101140.94;5098930;27;45445;-67
2022/03/10 03:45:44;;;;;;;;;38.00;31.75;;;;;8.06;55.32;101147.88;5097956;27;46114;-66
2022/03/10 03:48:10;;;;;;;;;34.75;32.25;;;;;8.04;55.32;101146.16;5098003;27;45237;-64
2022/03/10 03:50:35;;;;;;;;;35.75;32.75;;;;;8.00;55.60;101146.28;5098168;27;45360;-64
2022/03/10 03:53:01;;;;;;;;;38.50;32.75;;;;;8.00;55.99;101141.88;5098444;27;45319;-67
2022/03/10 03:55:27;;;;;;;;;35.50;28.50;;;;;7.99;55.78;101148.00;5097739;27;46025;-66
2022/03/10 03:57:52;;;;;;;;;29.00;25.75;;;;;7.96;56.36;101145.47;5097864;27;45317;-64
2022/03/10 04:00:18;;;;;;;;;35.75;31.25;;;;;7.96;55.54;101152.47;5096775;27;45284;-65
2022/03/10 04:02:45;;;;;;;;;38.50;33.50;;;;;7.91;56.41;101149.94;5098810;27;45270;-65
2022/03/10 04:05:11;;;;;;;;;36.50;33.25;;;;;7.90;56.05;101151.66;5097922;27;45431;-67
2022/03/10 04:07:36;;;;;;;;;44.50;33.00;;;;;7.90;55.77;101154.28;5097777;27;45376;-66
2022/03/10 04:10:03;;;;;;;;;40.25;32.50;;;;;7.88;56.68;101163.09;5113417;27;45402;-65
2022/03/10 04:12:28;;;;;;;;;43.50;33.50;;;;;7.84;56.52;101148.31;5097818;27;45390;-65
2022/03/10 04:14:54;;;;;;;;;46.25;36.25;;;;;7.82;56.86;101150.13;5093886;27;47147;-64
2022/03/10 04:17:19;;;;;;;;;38.50;33.00;;;;;7.80;56.86;101147.50;5097313;27;45456;-65
2022/03/10 04:19:44;;;;;;;;;39.75;32.25;;;;;7.77;56.68;101149.34;5097979;27;45377;-64
2022/03/10 04:22:10;;;;;;;;;43.50;33.75;;;;;7.77;56.54;101152.81;5096745;27;45409;-65
2022/03/10 04:24:35;;;;;;;;;38.25;33.00;;;;;7.74;56.50;101153.75;5096256;27;46923;-65
2022/03/10 04:27:01;;;;;;;;;40.50;33.50;;;;;7.74;56.73;101155.47;5095957;27;45327;-69
2022/03/10 04:29:26;;;;;;;;;36.25;32.75;;;;;7.71;56.32;101164.28;5097603;27;45254;-65
2022/03/10 04:31:51;;;;;;;;;35.00;33.00;;;;;7.69;56.39;101157.31;5097348;27;45390;-66
2022/03/10 04:34:17;;;;;;;;;38.25;30.25;;;;;7.69;56.56;101163.44;5097156;27;46270;-65
2022/03/10 04:36:42;;;;;;;;;42.50;33.25;;;;;7.68;56.81;101164.34;5097241;27;45455;-65
2022/03/10 04:39:08;;;;;;;;;37.50;32.75;;;;;7.66;57.51;101165.25;5113326;27;45479;-65
2022/03/10 04:41:34;;;;;;;;;38.00;32.75;;;;;7.66;56.55;101162.63;5096634;27;45263;-63
2022/03/10 04:44:00;;;;;;;;;40.75;33.00;;;;;7.64;57.21;101167.91;5096975;27;46238;-64
2022/03/10 04:46:25;;;;;;;;;42.00;33.00;;;;;7.62;57.62;101164.44;5097257;27;45495;-67
2022/03/10 04:48:50;;;;;;;;;36.25;32.25;;;;;7.64;56.95;101167.03;5096837;27;45435;-62
2022/03/10 04:51:16;;;;;;;;;43.00;33.50;;;;;7.63;56.72;101160.94;5096768;27;45536;-66
2022/03/10 04:53:42;;;;;;;;;35.00;27.75;;;;;7.61;56.91;101170.59;5097140;27;45334;-66
2022/03/10 04:56:07;;;;;;;;;44.75;34.50;;;;;7.61;57.95;101173.19;5096492;27;45599;-65
2022/03/10 04:58:33;;;;;;;;;45.75;34.25;;;;;7.61;56.96;101170.59;5096044;27;45724;-65
2022/03/10 05:00:59;;;;;;;;;40.00;33.75;;;;;7.58;57.41;101168.88;5096958;27;45567;-65
2022/03/10 05:03:24;;;;;;;;;45.25;33.50;;;;;7.56;57.83;101168.03;5096666;27;47133;-64
2022/03/10 05:05:49;;;;;;;;;41.25;32.75;;;;;7.56;58.11;101169.81;5104273;27;45388;-66
2022/03/10 05:08:15;;;;;;;;;38.25;32.25;;;;;7.53;58.31;101170.72;5096433;27;45354;-66
2022/03/10 05:10:40;;;;;;;;;39.00;31.75;;;;;7.53;57.27;101168.09;5096600;27;45265;-66
2022/03/10 05:13:06;;;;;;;;;42.75;31.75;;;;;7.53;57.94;101165.47;5095803;27;46241;-65
2022/03/10 05:15:31;;;;;;;;;38.00;33.00;;;;;7.52;57.64;101165.50;5096453;27;49582;-66
2022/03/10 05:17:58;;;;;;;;;44.75;36.25;;;;;7.50;58.32;101159.44;5095418;27;45448;-63
2022/03/10 05:20:25;;;;;;;;;38.00;31.00;;;;;7.48;57.92;101156.00;5095194;27;45384;-64
2022/03/10 05:22:55;;;;;;;;;42.50;33.25;;;;;7.45;57.62;101159.50;5096176;27;46346;-64
2022/03/10 05:25:25;;;;;;;;;41.25;34.00;;;;;7.46;58.11;101158.63;5096412;27;45368;-65
2022/03/10 05:27:52;;;;;;;;;33.25;31.50;;;;;7.42;58.58;101157.81;5096565;27;45395;-63
2022/03/10 05:30:19;;;;;;;;;43.75;36.00;;;;;7.42;58.99;101151.72;5096643;27;45498;-65
2022/03/10 05:32:45;;;;;;;;;46.25;36.50;;;;;7.42;59.09;101156.94;5095003;27;47257;-64
2022/03/10 05:35:16;;;;;;;;;39.75;33.50;;;;;7.40;58.19;101156.97;5096414;27;45293;-65
2022/03/10 05:37:43;;;;;;;;;41.25;33.75;;;;;7.38;58.59;101156.13;5095070;27;45345;-64
2022/03/10 05:40:10;;;;;;;;;40.25;33.50;;;;;7.37;58.58;101153.56;5096375;27;45352;-65
2022/03/10 05:42:40;;;;;;;;;42.00;33.50;;;;;7.36;58.02;101163.13;5094737;27;48453;-64
2022/03/10 05:45:07;;;;;;;;;42.25;34.25;;;;;7.33;58.14;101157.97;5095312;27;45343;-64
2022/03/10 05:47:34;;;;;;;;;39.75;33.50;;;;;7.30;59.34;101158.88;5096451;27;45319;-66
2022/03/10 05:49:59;;;;;;;;;38.50;34.25;;;;;7.30;59.21;101161.50;5112402;27;45452;-64
2022/03/10 05:52:25;;;;;;;;;42.50;35.25;;;;;7.28;59.16;101157.19;5095814;27;46664;-64
2022/03/10 05:54:50;;;;;;;;;42.25;35.50;;;;;7.28;59.14;101157.19;5095861;27;45408;-66
2022/03/10 05:57:15;;;;;;;;;47.00;36.25;;;;;7.25;59.10;101152.00;5096076;27;45344;-66
2022/03/10 05:59:41;;;;;;;;;35.75;29.75;;;;;7.25;59.54;101155.50;5095954;27;45306;-67
2022/03/10 06:02:06;;;;;;;;;42.00;34.25;;;;;7.26;59.18;101162.44;5095960;27;46218;-65
2022/03/10 06:04:31;;;;;;;;;47.25;35.50;;;;;7.24;59.78;101159.00;5095545;27;55395;-62
2022/03/10 06:06:57;;;;;;;;;43.75;34.25;;;;;7.22;59.40;101162.50;5096220;27;45297;-66
2022/03/10 06:09:22;;;;;;;;;42.25;33.50;;;;;7.23;59.89;101159.88;5096340;27;45356;-65
2022/03/10 06:11:47;;;;;;;;;39.50;33.25;;;;;7.23;58.92;101165.13;5094780;27;47452;-66
2022/03/10 06:14:13;;;;;;;;;43.50;34.50;;;;;7.21;59.30;101166.03;5095914;27;45310;-64
2022/03/10 06:16:40;;;;;;;;;44.50;33.25;;;;;7.19;59.88;101160.84;5095974;27;45325;-62
2022/03/10 06:19:06;;;;;;;;;42.50;35.00;;;;;7.20;60.11;101159.94;5096120;27;45506;-65
2022/03/10 06:21:33;;;;;;;;;43.75;33.50;;;;;7.21;60.70;101163.41;5096082;27;46132;-65
2022/03/10 06:23:58;;;;;;;;;50.00;36.50;;;;;7.22;59.59;101162.50;5096192;27;45388;-64
2022/03/10 06:26:24;;;;;;;;;41.25;36.25;;;;;7.23;59.58;101161.63;5095697;27;46175;-67
2022/03/10 06:28:49;;;;;;;;;44.75;34.75;;;;;7.21;59.98;101164.28;5111862;27;45318;-68
2022/03/10 06:31:14;;;;;;;;;44.75;36.75;;;;;7.26;60.31;101164.19;5095614;27;46174;-67
2022/03/10 06:33:40;;;;;;;;;42.50;34.25;;;;;7.28;60.41;101171.13;5094553;27;45331;-66
2022/03/10 06:36:06;;;;;;;;;46.00;37.00;;;;;7.30;59.70;101177.22;5095727;27;45336;-65
2022/03/10 06:38:32;;;;;;;;;36.50;34.00;;;;;7.30;59.46;101173.72;5096557;27;45473;-65
2022/03/10 06:40:58;;;;;;;;;41.50;34.50;;;;;7.27;60.35;101174.66;5094289;27;47563;-65
2022/03/10 06:43:23;;;;;;;;;44.50;37.75;;;;;7.29;60.33;101169.38;5095376;27;45287;-67
2022/03/10 06:45:49;;;;;;;;;39.75;33.00;;;;;7.28;60.98;101173.75;5095605;27;45290;-65
2022/03/10 06:48:14;;;;;;;;;46.75;37.00;;;;;7.28;59.81;101180.72;5095506;27;45259;-66
2022/03/10 06:50:40;;;;;;;;;45.25;35.75;;;;;7.27;60.55;101168.53;5095229;27;45850;-65
2022/03/10 06:53:05;;;;;;;;;34.25;30.00;;;;;7.27;60.46;101174.66;5094056;27;45579;-65
2022/03/10 06:55:30;;;;;;;;;43.50;34.00;;;;;7.29;60.70;101179.84;5097050;27;45526;-64
2022/03/10 06:57:56;;;;;;;;;43.75;33.25;;;;;7.27;60.38;101174.66;5099150;27;45574;-63
2022/03/10 07:00:23;;;;;;;;;45.25;33.25;;;;;7.30;60.42;101184.19;5098520;27;45691;-65
2022/03/10 07:02:49;;;;;;;;;39.75;34.00;;;;;7.31;60.16;101180.69;5097367;27;45449;-66
2022/03/10 07:05:15;;;;;;;;;40.25;32.25;;;;;7.30;60.18;101181.56;5099010;27;45282;-64
2022/03/10 07:07:40;;;;;;;;;41.75;34.50;;;;;7.33;60.42;101184.13;5098824;27;45254;-65
2022/03/10 07:10:06;;;;;;;;;40.50;33.00;;;;;7.34;59.87;101180.63;5098706;27;45997;-66
2022/03/10 07:12:36;;;;;;;;;41.75;35.25;;;;;7.35;60.26;101187.59;5114740;27;45351;-67
2022/03/10 07:15:03;;;;;;;;;43.75;35.25;;;;;7.34;61.03;101190.25;5098741;27;45369;-66
2022/03/10 07:17:29;;;;;;;;;45.75;37.25;;;;;7.36;60.67;101197.16;5098581;27;45638;-64
2022/03/10 07:19:54;;;;;;;;;37.00;31.75;;;;;7.39;60.89;101194.50;5096811;27;48419;-64
2022/03/10 07:22:19;;;;;;;;;46.50;35.25;;;;;7.40;60.09;101196.22;5097794;27;45337;-64
2022/03/10 07:24:45;;;;;;;;;44.25;35.75;;;;;7.47;60.82;101204.00;5098287;27;45399;-64
2022/03/10 07:27:11;;;;;;;;;51.25;38.75;;;;;7.50;60.21;101201.31;5098399;27;45607;-62
2022/03/10 07:29:37;;;;;;;;;45.00;36.00;;;;;7.54;60.60;101214.31;5098033;27;46304;-67
2022/03/10 07:32:03;;;;;;;;;45.00;36.00;;;;;7.53;60.76;101198.66;5098254;27;45443;-66
2022/03/10 07:34:28;;;;;;;;;44.50;36.00;;;;;7.61;60.86;101207.25;5096703;27;45302;-65
2022/03/10 07:36:53;;;;;;;;;50.00;38.00;;;;;7.61;60.12;101199.38;5098253;27;45260;-65
2022/03/10 07:39:19;;;;;;;;;45.75;36.75;;;;;7.65;60.44;101202.78;5097518;27;46073;-65
2022/03/10 07:41:44;;;;;;;;;45.50;37.00;;;;;7.67;60.93;101201.88;5097756;27;45349;-64
2022/03/10 07:44:10;;;;;;;;;36.75;33.50;;;;;7.72;60.48;101209.66;5098048;27;45250;-63
2022/03/10 07:46:35;;;;;;;;;37.75;33.00;;;;;7.75;60.19;101212.22;5098511;27;45336;-64
2022/03/10 07:49:02;;;;;;;;;39.25;34.00;;;;;7.78;60.23;101206.91;5097791;27;46096;-68
2022/03/10 07:51:27;;;;;;;;;46.50;36.25;;;;;7.81;60.36;101206.00;5097852;27;45329;-66
2022/03/10 07:53:52;;;;;;;;;49.00;37.00;;;;;7.83;60.66;101194.59;5097905;27;45290;-65
2022/03/10 07:56:18;;;;;;;;;44.50;36.00;;;;;7.95;61.03;101204.00;5096544;27;45568;-66
2022/03/10 07:58:43;;;;;;;;;42.00;36.00;;;;;7.98;60.59;101209.16;5097040;27;47028;-64
2022/03/10 08:01:09;;;;;;;;;41.50;34.00;;;;;8.03;60.00;101203.84;5095741;27;45428;-66
2022/03/10 08:03:38;;;;;;;;;49.00;37.00;;;;;8.07;60.42;101209.88;5098263;27;45968;-66
2022/03/10 08:06:04;;;;;;;;;47.00;35.75;;;;;8.08;59.86;101203.75;5095818;27;45734;-66
2022/03/10 08:08:29;;;;;;;;;41.75;36.00;;;;;8.17;60.00;101211.41;5096183;27;45275;-66
2022/03/10 08:10:55;;;;;;;;;44.00;36.50;;;;;8.24;60.02;101209.56;5097685;27;45269;-66
2022/03/10 08:13:25;;;;;;;;;46.00;37.00;;;;;8.32;60.26;101212.88;5097302;27;45733;-65
2022/03/10 08:15:50;;;;;;;;;47.75;35.25;;;;;8.37;60.24;101211.03;5096305;27;45496;-65
2022/03/10 08:18:16;;;;;;;;;44.25;33.75;;;;;8.42;60.11;101209.16;5097562;27;45445;-67
2022/03/10 08:20:42;;;;;;;;;46.25;36.50;;;;;8.47;59.53;101214.28;5097597;27;45247;-66
2022/03/10 08:23:07;;;;;;;;;42.75;35.25;;;;;8.52;59.63;101212.50;5097421;27;45243;-72
2022/03/10 08:25:34;;;;;;;;;42.75;33.25;;;;;8.56;59.61;101206.31;5097891;27;45652;-69
2022/03/10 08:27:59;;;;;;;;;39.75;34.00;;;;;8.65;59.75;101209.63;5095846;27;46896;-73
2022/03/10 08:30:25;;;;;;;;;39.25;32.25;;;;;8.72;59.96;101213.81;5092141;27;45264;-67
2022/03/10 08:32:50;;;;;;;;;35.00;32.00;;;;;8.79;59.14;101211.91;5076666;27;45527;-66
2022/03/10 08:35:16;;;;;;;;;45.75;35.00;;;;;8.85;59.86;101211.78;5076773;27;45386;-66
2022/03/10 08:37:43;;;;;;;;;46.00;35.00;;;;;8.91;59.38;101204.63;5076303;27;45404;-65
2022/03/10 08:40:10;;;;;;;;;48.00;36.25;;;;;9.00;59.47;101192.19;5077024;27;45403;-67
2022/03/10 08:42:35;;;;;;;;;40.25;32.00;;;;;9.11;59.34;101203.28;5075668;28;45335;-67
2022/03/10 08:45:01;;;;;;;;;42.50;33.25;;;;;9.17;58.85;101192.66;5076663;27;45139;-65
2022/03/10 08:47:28;;;;;;;;;38.50;32.50;;;;;9.23;58.46;101190.78;5076818;28;46372;-65
2022/03/10 08:49:54;;;;;;;;;36.50;30.75;;;;;9.29;58.42;101191.50;5076549;27;45471;-67
2022/03/10 08:52:19;;;;;;;;;39.50;32.25;;;;;9.34;58.29;101183.47;5076957;27;45314;-67
2022/03/10 08:54:45;;;;;;;;;44.75;35.75;;;;;9.41;58.80;101189.47;5076694;27;45572;-66
2022/03/10 08:57:10;;;;;;;;;43.50;35.00;;;;;9.52;58.29;101187.41;5076587;27;46075;-66
2022/03/10 08:59:35;;;;;;;;;43.00;34.50;;;;;9.58;57.69;101181.16;5076688;27;45422;-67
2022/03/10 09:02:01;;;;;;;;;41.75;33.00;;;;;9.69;57.58;101186.97;5075347;27;45414;-67
2022/03/10 09:04:29;;;;;;;;;36.50;31.50;;;;;9.77;57.72;101185.00;5075334;28;45512;-69
2022/03/10 09:06:54;;;;;;;;;34.00;28.25;;;;;9.82;57.64;101179.59;5076514;27;45677;-68
2022/03/10 09:09:20;;;;;;;;;39.00;32.50;;;;;9.90;57.63;101179.41;5092098;27;45349;-66
2022/03/10 09:11:45;;;;;;;;;43.25;30.50;;;;;10.01;57.21;101189.59;5076957;27;46057;-68
2022/03/10 09:14:11;;;;;;;;;43.50;36.00;;;;;10.11;57.42;101182.34;5077024;27;45376;-69
2022/03/10 09:16:36;;;;;;;;;42.25;33.00;;;;;10.18;56.95;101187.38;5076512;27;46303;-67
2022/03/10 09:19:01;;;;;;;;;33.75;29.00;;;;;10.28;57.13;101176.59;5074793;28;45316;-64
2022/03/10 09:21:27;;;;;;;;;40.75;34.50;;;;;10.38;56.52;101180.69;5076315;27;45291;-65
2022/03/10 09:23:53;;;;;;;;;33.00;28.50;;;;;10.47;56.19;101182.19;5076568;27;45626;-66
2022/03/10 09:26:18;;;;;;;;;42.25;34.75;;;;;10.52;55.89;101175.91;5075930;27;46248;-68
2022/03/10 09:28:44;;;;;;;;;43.00;34.25;;;;;10.63;56.41;101183.47;5074828;27;45327;-66
2022/03/10 09:31:12;;;;;;;;;33.00;28.50;;;;;10.72;55.95;101182.31;5076772;27;45354;-70
2022/03/10 09:33:40;;;;;;;;;31.25;29.50;;;;;10.82;55.94;101188.16;5076450;27;45373;-67
2022/03/10 09:36:05;;;;;;;;;32.50;31.25;;;;;10.84;55.23;101173.19;5075826;27;47033;-67
2022/03/10 09:38:31;;;;;;;;;37.50;31.50;;;;;11.00;55.22;101184.06;5076032;27;45226;-69
2022/03/10 09:40:56;;;;;;;;;31.25;29.25;;;;;11.10;55.53;101176.72;5075986;27;45252;-67
2022/03/10 09:43:26;;;;;;;;;32.50;30.75;;;;;11.20;55.26;101172.88;5076271;27;45136;-67
2022/03/10 09:45:52;;;;;;;;;35.00;28.50;;;;;11.31;55.07;101180.44;5075926;27;46045;-66
2022/03/10 09:48:17;;;;;;;;;31.25;28.25;;;;;11.38;54.96;101176.69;5075656;27;45513;-67
2022/03/10 09:50:45;;;;;;;;;34.00;28.50;;;;;11.52;54.13;101181.47;5075456;27;45381;-65
2022/03/10 09:53:10;;;;;;;;;32.25;29.00;;;;;11.63;54.45;101182.84;5076158;27;45586;-67
2022/03/10 09:55:36;;;;;;;;;30.75;26.50;;;;;11.69;54.24;101177.41;5074142;28;47049;-65
2022/03/10 09:58:03;;;;;;;;;35.75;29.50;;;;;11.82;53.88;101175.16;5074090;27;45301;-66
2022/03/10 10:00:29;;;;;;;;;37.00;30.00;;;;;11.89;54.03;101171.41;5074359;28;45236;-66
2022/03/10 10:02:55;;;;;;;;;28.75;27.25;;;;;12.03;53.14;101172.69;5076140;27;45415;-65
2022/03/10 10:05:22;;;;;;;;;28.25;25.25;;;;;12.11;53.93;101170.63;5073885;28;46969;-66
2022/03/10 10:08:06;;;;;;;;;36.00;29.25;;;;;12.20;53.14;101166.81;5075568;27;45319;-67
2022/03/10 10:10:34;;;;;;;;;30.75;26.00;;;;;12.29;53.22;101178.81;5075857;27;45282;-68
2022/03/10 10:13:05;;;;;;;;;36.75;28.00;;;;;12.40;53.21;101168.69;5075298;27;45358;-67
2022/03/10 10:15:36;;;;;;;;;33.25;28.25;;;;;12.51;52.99;101171.78;5075452;27;46247;-67
2022/03/10 10:18:02;;;;;;;;;30.75;26.50;;;;;12.59;52.50;101158.25;5075771;28;45309;-66
2022/03/10 10:20:45;;;;;;;;;33.50;26.25;;;;;12.72;52.36;101156.00;5075400;27;45443;-67
2022/03/10 10:23:17;;;;;;;;;30.00;26.25;;;;;12.84;52.27;101159.94;5076091;27;45247;-68
2022/03/10 10:25:54;;;;;;;;;33.50;29.00;;;;;12.94;51.77;101169.22;5073964;28;46028;-68
2022/03/10 10:28:27;;;;;;;;;30.50;25.50;;;;;13.08;51.94;101157.22;5073361;27;45454;-64
2022/03/10 10:31:05;;;;;;;;;37.00;31.75;;;;;13.19;51.65;101155.00;5077051;27;45316;-67
2022/03/10 10:33:33;;;;;;;;;28.25;24.75;;;;;13.35;51.78;101151.69;5078896;27;45316;-65
2022/03/10 10:36:28;;;;;;;;;34.25;33.00;;;;;13.47;51.24;101134.50;5078639;27;45289;-65
2022/03/10 10:38:57;;;;;;;;;26.00;23.00;;;;;13.62;51.05;101143.53;5078936;27;45430;-67
2022/03/10 10:41:31;;;;;;;;;32.50;30.00;;;;;13.70;51.17;101133.47;5078380;28;45369;-67
2022/03/10 10:44:08;;;;;;;;;29.00;25.50;;;;;13.84;50.54;101141.66;5077605;27;45322;-66
2022/03/10 10:46:38;;;;;;;;;24.00;21.50;;;;;13.95;50.28;101141.16;5078281;27;47496;-65
2022/03/10 10:49:10;;;;;;;;;28.00;22.50;;;;;14.02;50.24;101134.66;5077167;28;45261;-65
2022/03/10 10:51:35;;;;;;;;;30.75;26.50;;;;;14.12;50.03;101135.09;5078930;27;45364;-66
2022/03/10 10:54:04;;;;;;;;;30.25;26.25;;;;;14.20;49.99;101126.78;5078428;27;45366;-68
2022/03/10 10:56:30;;;;;;;;;24.75;24.00;;;;;14.28;49.23;101123.81;5076821;28;47340;-67
2022/03/10 10:58:56;;;;;;;;;27.50;24.50;;;;;14.37;48.87;101119.88;5078014;27;45421;-66
2022/03/10 11:01:35;;;;;;;;;30.75;27.50;;;;;14.41;49.42;101117.00;5078306;27;45480;-68
2022/03/10 11:04:03;;;;;;;;;21.75;20.75;;;;;14.50;49.12;101122.78;5077934;27;45517;-67
2022/03/10 11:06:29;;;;;;;;;26.25;23.00;;;;;14.58;49.25;101115.31;5077741;27;45429;-66
2022/03/10 11:08:55;;;;;;;;;23.50;21.75;;;;;14.65;49.14;101105.31;5076683;27;45494;-67
2022/03/10 11:11:21;;;;;;;;;31.25;23.75;;;;;14.78;48.88;101100.28;5076486;27;45278;-68
2022/03/10 11:13:48;;;;;;;;;25.00;22.75;;;;;14.88;48.69;101101.56;5078122;27;45746;-68
2022/03/10 11:16:15;;;;;;;;;26.50;24.25;;;;;15.02;48.69;101103.50;5078096;28;45347;-68
2022/03/10 11:18:46;;;;;;;;;28.50;22.50;;;;;15.11;48.25;101087.13;5077833;27;45223;-67